sensor_id;sensor_type;location;lat;lon;timestamp;P1;durP1;ratioP1;P2;durP2;ratioP2
23716;SDS011;22094;52.130;5.598;2024-01-06T00:00:50;19.23;;;12.85;;
23716;SDS011;22094;52.130;5.598;2024-01-06T00:03:16;17.95;;;11.75;;
23716;SDS011;22094;52.130;5.598;2024-01-06T00:05:41;18.50;;;12.10;;
23716;SDS011;22094;52.130;5.598;2024-01-06T00:08:07;18.90;;;12.18;;
23716;SDS011;22094;52.130;5.598;2024-01-06T00:10:33;18.48;;;11.90;;
23716;SDS011;22094;52.130;5.598;2024-01-06T00:12:59;17.95;;;11.60;;
23716;SDS011;22094;52.130;5.598;2024-01-06T00:15:24;19.90;;;12.05;;
23716;SDS011;22094;52.130;5.598;2024-01-06T00:17:50;19.25;;;12.10;;
23716;SDS011;22094;52.130;5.598;2024-01-06T00:20:18;17.77;;;11.38;;
23716;SDS011;22094;52.130;5.598;2024-01-06T00:22:43;16.23;;;11.35;;
23716;SDS011;22094;52.130;5.598;2024-01-06T00:25:09;17.13;;;11.55;;
23716;SDS011;22094;52.130;5.598;2024-01-06T00:27:35;15.63;;;10.73;;
23716;SDS011;22094;52.130;5.598;2024-01-06T00:30:00;12.52;;;9.20;;
23716;SDS011;22094;52.130;5.598;2024-01-06T00:32:26;14.65;;;10.40;;
23716;SDS011;22094;52.130;5.598;2024-01-06T00:34:51;15.35;;;10.80;;
23716;SDS011;22094;52.130;5.598;2024-01-06T00:37:17;13.10;;;9.32;;
23716;SDS011;22094;52.130;5.598;2024-01-06T00:39:42;12.35;;;9.43;;
23716;SDS011;22094;52.130;5.598;2024-01-06T00:42:08;14.25;;;10.63;;
23716;SDS011;22094;52.130;5.598;2024-01-06T00:44:35;13.38;;;9.80;;
23716;SDS011;22094;52.130;5.598;2024-01-06T00:47:02;14.40;;;10.45;;
23716;SDS011;22094;52.130;5.598;2024-01-06T00:49:27;17.50;;;11.32;;
23716;SDS011;22094;52.130;5.598;2024-01-06T00:51:53;15.45;;;10.75;;
23716;SDS011;22094;52.130;5.598;2024-01-06T00:54:19;17.60;;;12.30;;
23716;SDS011;22094;52.130;5.598;2024-01-06T00:56:44;17.10;;;11.88;;
23716;SDS011;22094;52.130;5.598;2024-01-06T00:59:10;19.45;;;11.88;;
23716;SDS011;22094;52.130;5.598;2024-01-06T01:01:35;18.98;;;12.02;;
23716;SDS011;22094;52.130;5.598;2024-01-06T01:04:01;19.92;;;13.10;;
23716;SDS011;22094;52.130;5.598;2024-01-06T01:06:26;19.65;;;12.55;;
23716;SDS011;22094;52.130;5.598;2024-01-06T01:08:52;20.08;;;12.98;;
23716;SDS011;22094;52.130;5.598;2024-01-06T01:11:18;24.17;;;14.13;;
23716;SDS011;22094;52.130;5.598;2024-01-06T01:13:44;21.02;;;13.32;;
23716;SDS011;22094;52.130;5.598;2024-01-06T01:16:10;20.75;;;13.10;;
23716;SDS011;22094;52.130;5.598;2024-01-06T01:18:35;24.60;;;14.45;;
23716;SDS011;22094;52.130;5.598;2024-01-06T01:21:01;26.02;;;14.95;;
23716;SDS011;22094;52.130;5.598;2024-01-06T01:23:26;23.55;;;14.48;;
23716;SDS011;22094;52.130;5.598;2024-01-06T01:25:52;24.40;;;14.07;;
23716;SDS011;22094;52.130;5.598;2024-01-06T01:28:19;26.00;;;15.15;;
23716;SDS011;22094;52.130;5.598;2024-01-06T01:30:44;26.15;;;15.43;;
23716;SDS011;22094;52.130;5.598;2024-01-06T01:33:10;25.17;;;15.30;;
23716;SDS011;22094;52.130;5.598;2024-01-06T01:35:35;23.67;;;14.15;;
23716;SDS011;22094;52.130;5.598;2024-01-06T01:38:01;26.13;;;15.82;;
23716;SDS011;22094;52.130;5.598;2024-01-06T01:40:27;26.48;;;16.05;;
23716;SDS011;22094;52.130;5.598;2024-01-06T01:42:53;25.42;;;16.15;;
23716;SDS011;22094;52.130;5.598;2024-01-06T01:45:18;26.17;;;16.60;;
23716;SDS011;22094;52.130;5.598;2024-01-06T01:47:44;25.35;;;16.08;;
23716;SDS011;22094;52.130;5.598;2024-01-06T01:50:10;25.95;;;15.63;;
23716;SDS011;22094;52.130;5.598;2024-01-06T01:52:37;25.27;;;15.73;;
23716;SDS011;22094;52.130;5.598;2024-01-06T01:55:04;23.35;;;15.00;;
23716;SDS011;22094;52.130;5.598;2024-01-06T01:57:30;23.33;;;14.82;;
23716;SDS011;22094;52.130;5.598;2024-01-06T01:59:56;24.02;;;14.30;;
23716;SDS011;22094;52.130;5.598;2024-01-06T02:02:22;22.95;;;14.70;;
23716;SDS011;22094;52.130;5.598;2024-01-06T02:04:48;24.88;;;14.68;;
23716;SDS011;22094;52.130;5.598;2024-01-06T02:07:14;23.10;;;14.13;;
23716;SDS011;22094;52.130;5.598;2024-01-06T02:09:39;21.42;;;13.85;;
23716;SDS011;22094;52.130;5.598;2024-01-06T02:12:05;21.05;;;13.93;;
23716;SDS011;22094;52.130;5.598;2024-01-06T02:14:31;21.88;;;13.82;;
23716;SDS011;22094;52.130;5.598;2024-01-06T02:16:57;21.27;;;14.20;;
23716;SDS011;22094;52.130;5.598;2024-01-06T02:19:23;19.88;;;13.75;;
23716;SDS011;22094;52.130;5.598;2024-01-06T02:21:51;22.73;;;14.38;;
23716;SDS011;22094;52.130;5.598;2024-01-06T02:24:18;22.67;;;14.75;;
23716;SDS011;22094;52.130;5.598;2024-01-06T02:26:43;23.58;;;15.38;;
23716;SDS011;22094;52.130;5.598;2024-01-06T02:29:09;24.30;;;15.35;;
23716;SDS011;22094;52.130;5.598;2024-01-06T02:31:35;24.38;;;15.07;;
23716;SDS011;22094;52.130;5.598;2024-01-06T02:34:00;22.80;;;15.55;;
23716;SDS011;22094;52.130;5.598;2024-01-06T02:36:26;24.27;;;15.73;;
23716;SDS011;22094;52.130;5.598;2024-01-06T02:38:51;24.20;;;15.85;;
23716;SDS011;22094;52.130;5.598;2024-01-06T02:41:17;24.50;;;15.93;;
23716;SDS011;22094;52.130;5.598;2024-01-06T02:43:42;29.02;;;16.90;;
23716;SDS011;22094;52.130;5.598;2024-01-06T02:46:08;27.02;;;16.83;;
23716;SDS011;22094;52.130;5.598;2024-01-06T02:48:33;26.55;;;16.20;;
23716;SDS011;22094;52.130;5.598;2024-01-06T02:50:59;27.40;;;17.15;;
23716;SDS011;22094;52.130;5.598;2024-01-06T02:53:25;26.90;;;17.17;;
23716;SDS011;22094;52.130;5.598;2024-01-06T02:55:50;28.25;;;17.55;;
23716;SDS011;22094;52.130;5.598;2024-01-06T02:58:16;27.27;;;17.58;;
23716;SDS011;22094;52.130;5.598;2024-01-06T03:00:41;29.60;;;17.90;;
23716;SDS011;22094;52.130;5.598;2024-01-06T03:03:07;30.40;;;17.33;;
23716;SDS011;22094;52.130;5.598;2024-01-06T03:05:32;26.02;;;16.58;;
23716;SDS011;22094;52.130;5.598;2024-01-06T03:07:58;26.13;;;16.42;;
23716;SDS011;22094;52.130;5.598;2024-01-06T03:10:24;28.35;;;18.35;;
23716;SDS011;22094;52.130;5.598;2024-01-06T03:12:49;29.85;;;17.38;;
23716;SDS011;22094;52.130;5.598;2024-01-06T03:15:15;29.83;;;17.40;;
23716;SDS011;22094;52.130;5.598;2024-01-06T03:17:40;28.75;;;17.65;;
23716;SDS011;22094;52.130;5.598;2024-01-06T03:20:06;29.33;;;18.02;;
23716;SDS011;22094;52.130;5.598;2024-01-06T03:22:32;30.75;;;18.58;;
23716;SDS011;22094;52.130;5.598;2024-01-06T03:24:58;30.92;;;18.48;;
23716;SDS011;22094;52.130;5.598;2024-01-06T03:27:24;31.85;;;18.80;;
23716;SDS011;22094;52.130;5.598;2024-01-06T03:29:49;28.30;;;17.38;;
23716;SDS011;22094;52.130;5.598;2024-01-06T03:32:15;30.20;;;17.80;;
23716;SDS011;22094;52.130;5.598;2024-01-06T03:34:41;29.27;;;17.25;;
23716;SDS011;22094;52.130;5.598;2024-01-06T03:37:06;30.52;;;17.80;;
23716;SDS011;22094;52.130;5.598;2024-01-06T03:39:32;33.22;;;18.00;;
23716;SDS011;22094;52.130;5.598;2024-01-06T03:41:57;32.38;;;18.25;;
23716;SDS011;22094;52.130;5.598;2024-01-06T03:44:24;29.92;;;17.58;;
23716;SDS011;22094;52.130;5.598;2024-01-06T03:46:50;29.75;;;18.38;;
23716;SDS011;22094;52.130;5.598;2024-01-06T03:49:16;31.98;;;18.67;;
23716;SDS011;22094;52.130;5.598;2024-01-06T03:51:43;30.88;;;18.05;;
23716;SDS011;22094;52.130;5.598;2024-01-06T03:54:09;31.60;;;17.30;;
23716;SDS011;22094;52.130;5.598;2024-01-06T03:56:34;32.28;;;17.83;;
23716;SDS011;22094;52.130;5.598;2024-01-06T03:59:00;30.70;;;17.75;;
23716;SDS011;22094;52.130;5.598;2024-01-06T04:01:25;28.70;;;16.75;;
23716;SDS011;22094;52.130;5.598;2024-01-06T04:03:51;30.08;;;17.40;;
23716;SDS011;22094;52.130;5.598;2024-01-06T04:06:16;26.88;;;16.65;;
23716;SDS011;22094;52.130;5.598;2024-01-06T04:08:42;28.15;;;17.35;;
23716;SDS011;22094;52.130;5.598;2024-01-06T04:11:10;33.83;;;18.55;;
23716;SDS011;22094;52.130;5.598;2024-01-06T04:13:36;30.05;;;17.85;;
23716;SDS011;22094;52.130;5.598;2024-01-06T04:16:01;31.15;;;17.90;;
23716;SDS011;22094;52.130;5.598;2024-01-06T04:18:27;28.13;;;16.70;;
23716;SDS011;22094;52.130;5.598;2024-01-06T04:20:53;27.73;;;16.60;;
23716;SDS011;22094;52.130;5.598;2024-01-06T04:23:18;26.45;;;14.88;;
23716;SDS011;22094;52.130;5.598;2024-01-06T04:25:44;26.83;;;15.80;;
23716;SDS011;22094;52.130;5.598;2024-01-06T04:28:10;26.95;;;14.40;;
23716;SDS011;22094;52.130;5.598;2024-01-06T04:30:35;22.27;;;13.48;;
23716;SDS011;22094;52.130;5.598;2024-01-06T04:33:01;25.27;;;13.07;;
23716;SDS011;22094;52.130;5.598;2024-01-06T04:35:26;22.58;;;13.23;;
23716;SDS011;22094;52.130;5.598;2024-01-06T04:37:52;19.70;;;12.50;;
23716;SDS011;22094;52.130;5.598;2024-01-06T04:40:17;17.98;;;10.07;;
23716;SDS011;22094;52.130;5.598;2024-01-06T04:42:43;21.23;;;11.70;;
23716;SDS011;22094;52.130;5.598;2024-01-06T04:45:09;17.95;;;10.95;;
23716;SDS011;22094;52.130;5.598;2024-01-06T04:47:34;18.17;;;11.00;;
23716;SDS011;22094;52.130;5.598;2024-01-06T04:50:00;22.20;;;12.23;;
23716;SDS011;22094;52.130;5.598;2024-01-06T04:52:25;21.00;;;11.52;;
23716;SDS011;22094;52.130;5.598;2024-01-06T04:54:51;21.08;;;12.00;;
23716;SDS011;22094;52.130;5.598;2024-01-06T04:57:16;21.08;;;12.07;;
23716;SDS011;22094;52.130;5.598;2024-01-06T04:59:42;21.17;;;12.55;;
23716;SDS011;22094;52.130;5.598;2024-01-06T05:02:08;20.45;;;12.80;;
23716;SDS011;22094;52.130;5.598;2024-01-06T05:04:33;18.63;;;11.30;;
23716;SDS011;22094;52.130;5.598;2024-01-06T05:06:59;22.30;;;12.63;;
23716;SDS011;22094;52.130;5.598;2024-01-06T05:09:25;22.75;;;13.63;;
23716;SDS011;22094;52.130;5.598;2024-01-06T05:11:50;21.05;;;13.07;;
23716;SDS011;22094;52.130;5.598;2024-01-06T05:14:16;22.92;;;13.85;;
23716;SDS011;22094;52.130;5.598;2024-01-06T05:16:41;20.50;;;12.77;;
23716;SDS011;22094;52.130;5.598;2024-01-06T05:19:07;20.60;;;12.80;;
23716;SDS011;22094;52.130;5.598;2024-01-06T05:21:33;20.05;;;12.48;;
23716;SDS011;22094;52.130;5.598;2024-01-06T05:23:59;23.15;;;13.13;;
23716;SDS011;22094;52.130;5.598;2024-01-06T05:26:25;21.55;;;13.40;;
23716;SDS011;22094;52.130;5.598;2024-01-06T05:28:51;20.60;;;13.05;;
23716;SDS011;22094;52.130;5.598;2024-01-06T05:31:17;18.02;;;12.98;;
23716;SDS011;22094;52.130;5.598;2024-01-06T05:33:43;20.17;;;13.55;;
23716;SDS011;22094;52.130;5.598;2024-01-06T05:36:09;19.98;;;13.40;;
23716;SDS011;22094;52.130;5.598;2024-01-06T05:38:35;21.30;;;14.10;;
23716;SDS011;22094;52.130;5.598;2024-01-06T05:41:02;23.05;;;13.95;;
23716;SDS011;22094;52.130;5.598;2024-01-06T05:43:27;22.23;;;14.25;;
23716;SDS011;22094;52.130;5.598;2024-01-06T05:45:53;19.98;;;13.98;;
23716;SDS011;22094;52.130;5.598;2024-01-06T05:48:18;21.17;;;14.73;;
23716;SDS011;22094;52.130;5.598;2024-01-06T05:50:44;21.67;;;14.10;;
23716;SDS011;22094;52.130;5.598;2024-01-06T05:53:10;21.50;;;14.35;;
23716;SDS011;22094;52.130;5.598;2024-01-06T05:55:35;20.77;;;14.35;;
23716;SDS011;22094;52.130;5.598;2024-01-06T05:58:01;22.38;;;14.73;;
23716;SDS011;22094;52.130;5.598;2024-01-06T06:00:27;23.60;;;14.82;;
23716;SDS011;22094;52.130;5.598;2024-01-06T06:02:52;22.75;;;15.00;;
23716;SDS011;22094;52.130;5.598;2024-01-06T06:05:18;26.45;;;15.27;;
23716;SDS011;22094;52.130;5.598;2024-01-06T06:07:45;20.92;;;14.55;;
23716;SDS011;22094;52.130;5.598;2024-01-06T06:10:11;25.75;;;15.93;;
23716;SDS011;22094;52.130;5.598;2024-01-06T06:12:36;23.73;;;14.60;;
23716;SDS011;22094;52.130;5.598;2024-01-06T06:15:03;23.83;;;15.07;;
23716;SDS011;22094;52.130;5.598;2024-01-06T06:17:30;24.23;;;15.23;;
23716;SDS011;22094;52.130;5.598;2024-01-06T06:19:56;23.92;;;15.18;;
23716;SDS011;22094;52.130;5.598;2024-01-06T06:22:22;20.98;;;14.27;;
23716;SDS011;22094;52.130;5.598;2024-01-06T06:24:48;22.15;;;14.30;;
23716;SDS011;22094;52.130;5.598;2024-01-06T06:27:14;21.33;;;13.82;;
23716;SDS011;22094;52.130;5.598;2024-01-06T06:29:40;20.42;;;14.02;;
23716;SDS011;22094;52.130;5.598;2024-01-06T06:32:05;22.95;;;14.07;;
23716;SDS011;22094;52.130;5.598;2024-01-06T06:34:31;20.95;;;13.82;;
23716;SDS011;22094;52.130;5.598;2024-01-06T06:36:56;22.83;;;14.82;;
23716;SDS011;22094;52.130;5.598;2024-01-06T06:39:23;18.80;;;13.25;;
23716;SDS011;22094;52.130;5.598;2024-01-06T06:41:49;21.85;;;13.32;;
23716;SDS011;22094;52.130;5.598;2024-01-06T06:44:14;21.33;;;13.77;;
23716;SDS011;22094;52.130;5.598;2024-01-06T06:46:40;19.33;;;13.60;;
23716;SDS011;22094;52.130;5.598;2024-01-06T06:49:06;22.17;;;13.30;;
23716;SDS011;22094;52.130;5.598;2024-01-06T06:51:31;22.15;;;14.05;;
23716;SDS011;22094;52.130;5.598;2024-01-06T06:53:57;19.38;;;12.60;;
23716;SDS011;22094;52.130;5.598;2024-01-06T06:56:23;23.33;;;14.32;;
23716;SDS011;22094;52.130;5.598;2024-01-06T06:58:49;21.48;;;13.95;;
23716;SDS011;22094;52.130;5.598;2024-01-06T07:01:15;19.98;;;13.13;;
23716;SDS011;22094;52.130;5.598;2024-01-06T07:03:41;20.90;;;13.30;;
23716;SDS011;22094;52.130;5.598;2024-01-06T07:06:07;20.15;;;12.88;;
23716;SDS011;22094;52.130;5.598;2024-01-06T07:08:32;20.98;;;13.38;;
23716;SDS011;22094;52.130;5.598;2024-01-06T07:10:58;22.27;;;13.27;;
23716;SDS011;22094;52.130;5.598;2024-01-06T07:13:23;20.60;;;13.82;;
23716;SDS011;22094;52.130;5.598;2024-01-06T07:15:49;22.38;;;14.10;;
23716;SDS011;22094;52.130;5.598;2024-01-06T07:18:15;21.88;;;14.50;;
23716;SDS011;22094;52.130;5.598;2024-01-06T07:20:40;25.45;;;14.73;;
23716;SDS011;22094;52.130;5.598;2024-01-06T07:23:06;21.77;;;14.27;;
23716;SDS011;22094;52.130;5.598;2024-01-06T07:25:32;23.05;;;13.93;;
23716;SDS011;22094;52.130;5.598;2024-01-06T07:27:57;22.75;;;14.63;;
23716;SDS011;22094;52.130;5.598;2024-01-06T07:30:23;23.27;;;14.57;;
23716;SDS011;22094;52.130;5.598;2024-01-06T07:32:49;23.60;;;14.85;;
23716;SDS011;22094;52.130;5.598;2024-01-06T07:35:16;22.70;;;14.15;;
23716;SDS011;22094;52.130;5.598;2024-01-06T07:37:41;21.38;;;13.73;;
23716;SDS011;22094;52.130;5.598;2024-01-06T07:40:07;19.85;;;13.55;;
23716;SDS011;22094;52.130;5.598;2024-01-06T07:42:33;22.80;;;14.52;;
23716;SDS011;22094;52.130;5.598;2024-01-06T07:44:59;24.05;;;14.30;;
23716;SDS011;22094;52.130;5.598;2024-01-06T07:47:27;22.13;;;13.52;;
23716;SDS011;22094;52.130;5.598;2024-01-06T07:50:00;21.92;;;13.13;;
23716;SDS011;22094;52.130;5.598;2024-01-06T07:52:25;20.48;;;12.82;;
23716;SDS011;22094;52.130;5.598;2024-01-06T07:54:51;20.65;;;12.85;;
23716;SDS011;22094;52.130;5.598;2024-01-06T07:57:16;19.55;;;13.32;;
23716;SDS011;22094;52.130;5.598;2024-01-06T07:59:42;19.23;;;13.15;;
23716;SDS011;22094;52.130;5.598;2024-01-06T08:02:08;20.67;;;13.40;;
23716;SDS011;22094;52.130;5.598;2024-01-06T08:04:34;21.20;;;14.00;;
23716;SDS011;22094;52.130;5.598;2024-01-06T08:07:01;19.25;;;13.07;;
23716;SDS011;22094;52.130;5.598;2024-01-06T08:09:27;20.27;;;13.38;;
23716;SDS011;22094;52.130;5.598;2024-01-06T08:11:52;20.08;;;13.20;;
23716;SDS011;22094;52.130;5.598;2024-01-06T08:14:18;18.73;;;13.57;;
23716;SDS011;22094;52.130;5.598;2024-01-06T08:16:43;20.10;;;13.50;;
23716;SDS011;22094;52.130;5.598;2024-01-06T08:19:09;19.23;;;13.30;;
23716;SDS011;22094;52.130;5.598;2024-01-06T08:21:35;20.17;;;13.32;;
23716;SDS011;22094;52.130;5.598;2024-01-06T08:24:01;20.10;;;13.63;;
23716;SDS011;22094;52.130;5.598;2024-01-06T08:26:27;20.65;;;14.23;;
23716;SDS011;22094;52.130;5.598;2024-01-06T08:28:52;20.98;;;13.77;;
23716;SDS011;22094;52.130;5.598;2024-01-06T08:31:18;21.30;;;13.90;;
23716;SDS011;22094;52.130;5.598;2024-01-06T08:33:43;19.88;;;13.65;;
23716;SDS011;22094;52.130;5.598;2024-01-06T08:36:10;19.55;;;13.95;;
23716;SDS011;22094;52.130;5.598;2024-01-06T08:38:35;18.85;;;13.65;;
23716;SDS011;22094;52.130;5.598;2024-01-06T08:41:01;18.95;;;13.55;;
23716;SDS011;22094;52.130;5.598;2024-01-06T08:43:27;19.52;;;12.75;;
23716;SDS011;22094;52.130;5.598;2024-01-06T08:45:52;16.52;;;11.98;;
23716;SDS011;22094;52.130;5.598;2024-01-06T08:48:18;18.02;;;12.88;;
23716;SDS011;22094;52.130;5.598;2024-01-06T08:50:44;15.95;;;12.10;;
23716;SDS011;22094;52.130;5.598;2024-01-06T08:53:10;16.05;;;12.52;;
23716;SDS011;22094;52.130;5.598;2024-01-06T08:55:36;17.92;;;12.07;;
23716;SDS011;22094;52.130;5.598;2024-01-06T08:58:02;18.00;;;12.80;;
23716;SDS011;22094;52.130;5.598;2024-01-06T09:00:27;15.23;;;11.65;;
23716;SDS011;22094;52.130;5.598;2024-01-06T09:02:53;16.88;;;11.57;;
23716;SDS011;22094;52.130;5.598;2024-01-06T09:05:18;16.52;;;12.02;;
23716;SDS011;22094;52.130;5.598;2024-01-06T09:07:44;15.77;;;11.52;;
23716;SDS011;22094;52.130;5.598;2024-01-06T09:10:14;16.42;;;11.48;;
23716;SDS011;22094;52.130;5.598;2024-01-06T09:12:43;15.15;;;11.13;;
23716;SDS011;22094;52.130;5.598;2024-01-06T09:15:09;16.92;;;12.20;;
23716;SDS011;22094;52.130;5.598;2024-01-06T09:17:34;13.95;;;11.27;;
23716;SDS011;22094;52.130;5.598;2024-01-06T09:20:00;17.17;;;11.23;;
23716;SDS011;22094;52.130;5.598;2024-01-06T09:22:26;14.75;;;11.43;;
23716;SDS011;22094;52.130;5.598;2024-01-06T09:24:52;15.15;;;10.98;;
23716;SDS011;22094;52.130;5.598;2024-01-06T09:27:17;15.10;;;11.48;;
23716;SDS011;22094;52.130;5.598;2024-01-06T09:29:44;17.73;;;11.32;;
23716;SDS011;22094;52.130;5.598;2024-01-06T09:32:09;15.60;;;11.43;;
23716;SDS011;22094;52.130;5.598;2024-01-06T09:34:35;18.73;;;11.77;;
23716;SDS011;22094;52.130;5.598;2024-01-06T09:37:01;19.25;;;13.38;;
23716;SDS011;22094;52.130;5.598;2024-01-06T09:39:26;19.92;;;13.02;;
23716;SDS011;22094;52.130;5.598;2024-01-06T09:41:52;18.67;;;12.55;;
23716;SDS011;22094;52.130;5.598;2024-01-06T09:44:18;17.42;;;13.63;;
23716;SDS011;22094;52.130;5.598;2024-01-06T09:46:44;16.08;;;12.20;;
23716;SDS011;22094;52.130;5.598;2024-01-06T09:49:09;17.38;;;12.77;;
23716;SDS011;22094;52.130;5.598;2024-01-06T09:51:39;17.13;;;12.32;;
23716;SDS011;22094;52.130;5.598;2024-01-06T09:54:06;16.83;;;11.88;;
23716;SDS011;22094;52.130;5.598;2024-01-06T09:56:34;17.98;;;11.88;;
23716;SDS011;22094;52.130;5.598;2024-01-06T09:59:00;17.42;;;13.02;;
23716;SDS011;22094;52.130;5.598;2024-01-06T10:01:25;17.98;;;12.73;;
23716;SDS011;22094;52.130;5.598;2024-01-06T10:03:51;19.17;;;12.43;;
23716;SDS011;22094;52.130;5.598;2024-01-06T10:06:17;16.95;;;12.60;;
23716;SDS011;22094;52.130;5.598;2024-01-06T10:08:50;15.80;;;12.13;;
23716;SDS011;22094;52.130;5.598;2024-01-06T10:11:17;15.35;;;12.32;;
23716;SDS011;22094;52.130;5.598;2024-01-06T10:13:43;15.98;;;11.98;;
23716;SDS011;22094;52.130;5.598;2024-01-06T10:16:09;15.35;;;12.07;;
23716;SDS011;22094;52.130;5.598;2024-01-06T10:18:34;17.45;;;12.93;;
23716;SDS011;22094;52.130;5.598;2024-01-06T10:21:04;18.42;;;13.25;;
23716;SDS011;22094;52.130;5.598;2024-01-06T10:23:32;17.27;;;12.60;;
23716;SDS011;22094;52.130;5.598;2024-01-06T10:25:58;16.30;;;12.55;;
23716;SDS011;22094;52.130;5.598;2024-01-06T10:28:24;17.67;;;12.68;;
23716;SDS011;22094;52.130;5.598;2024-01-06T10:30:53;18.05;;;13.15;;
23716;SDS011;22094;52.130;5.598;2024-01-06T10:33:20;16.33;;;12.55;;
23716;SDS011;22094;52.130;5.598;2024-01-06T10:35:47;15.70;;;11.98;;
23716;SDS011;22094;52.130;5.598;2024-01-06T10:38:14;15.65;;;12.13;;
23716;SDS011;22094;52.130;5.598;2024-01-06T10:43:32;13.73;;;11.23;;
23716;SDS011;22094;52.130;5.598;2024-01-06T10:46:03;14.23;;;11.63;;
23716;SDS011;22094;52.130;5.598;2024-01-06T10:48:33;16.05;;;11.77;;
23716;SDS011;22094;52.130;5.598;2024-01-06T10:51:00;14.48;;;11.32;;
23716;SDS011;22094;52.130;5.598;2024-01-06T10:53:27;15.40;;;11.93;;
23716;SDS011;22094;52.130;5.598;2024-01-06T10:55:53;15.13;;;11.48;;
23716;SDS011;22094;52.130;5.598;2024-01-06T10:58:18;13.93;;;10.88;;
23716;SDS011;22094;52.130;5.598;2024-01-06T11:00:45;13.57;;;11.02;;
23716;SDS011;22094;52.130;5.598;2024-01-06T11:03:12;13.85;;;11.05;;
23716;SDS011;22094;52.130;5.598;2024-01-06T11:05:40;15.70;;;10.70;;
23716;SDS011;22094;52.130;5.598;2024-01-06T11:08:08;13.20;;;10.95;;
23716;SDS011;22094;52.130;5.598;2024-01-06T11:10:35;15.15;;;10.98;;
23716;SDS011;22094;52.130;5.598;2024-01-06T11:13:05;13.63;;;10.90;;
23716;SDS011;22094;52.130;5.598;2024-01-06T11:15:42;13.27;;;10.32;;
23716;SDS011;22094;52.130;5.598;2024-01-06T11:18:57;15.98;;;10.80;;
23716;SDS011;22094;52.130;5.598;2024-01-06T11:23:40;15.13;;;10.43;;
23716;SDS011;22094;52.130;5.598;2024-01-06T11:26:06;13.50;;;10.82;;
23716;SDS011;22094;52.130;5.598;2024-01-06T11:28:42;15.43;;;10.73;;
23716;SDS011;22094;52.130;5.598;2024-01-06T11:31:12;13.10;;;10.38;;
23716;SDS011;22094;52.130;5.598;2024-01-06T11:33:41;12.90;;;10.45;;
23716;SDS011;22094;52.130;5.598;2024-01-06T11:36:08;14.13;;;10.98;;
23716;SDS011;22094;52.130;5.598;2024-01-06T11:38:38;16.17;;;12.65;;
23716;SDS011;22094;52.130;5.598;2024-01-06T11:41:06;14.82;;;11.45;;
23716;SDS011;22094;52.130;5.598;2024-01-06T11:43:33;15.23;;;11.82;;
23716;SDS011;22094;52.130;5.598;2024-01-06T11:46:00;17.58;;;12.70;;
23716;SDS011;22094;52.130;5.598;2024-01-06T11:48:27;15.43;;;12.68;;
23716;SDS011;22094;52.130;5.598;2024-01-06T11:50:56;17.88;;;13.15;;
23716;SDS011;22094;52.130;5.598;2024-01-06T11:53:23;15.35;;;12.32;;
23716;SDS011;22094;52.130;5.598;2024-01-06T11:55:52;17.27;;;12.93;;
23716;SDS011;22094;52.130;5.598;2024-01-06T11:58:18;17.95;;;13.52;;
23716;SDS011;22094;52.130;5.598;2024-01-06T12:00:44;18.23;;;13.88;;
23716;SDS011;22094;52.130;5.598;2024-01-06T12:03:19;18.52;;;13.75;;
23716;SDS011;22094;52.130;5.598;2024-01-06T12:05:45;18.00;;;14.05;;
23716;SDS011;22094;52.130;5.598;2024-01-06T12:08:10;19.85;;;14.05;;
23716;SDS011;22094;52.130;5.598;2024-01-06T12:10:36;21.30;;;15.15;;
23716;SDS011;22094;52.130;5.598;2024-01-06T12:13:02;19.45;;;14.80;;
23716;SDS011;22094;52.130;5.598;2024-01-06T12:15:33;19.15;;;14.77;;
23716;SDS011;22094;52.130;5.598;2024-01-06T12:18:02;20.42;;;14.50;;
23716;SDS011;22094;52.130;5.598;2024-01-06T12:20:28;22.90;;;14.80;;
23716;SDS011;22094;52.130;5.598;2024-01-06T12:22:54;19.33;;;14.85;;
23716;SDS011;22094;52.130;5.598;2024-01-06T12:25:21;19.95;;;14.98;;
23716;SDS011;22094;52.130;5.598;2024-01-06T12:27:48;19.60;;;14.77;;
23716;SDS011;22094;52.130;5.598;2024-01-06T12:30:14;19.63;;;14.10;;
23716;SDS011;22094;52.130;5.598;2024-01-06T12:32:42;23.00;;;15.35;;
23716;SDS011;22094;52.130;5.598;2024-01-06T12:35:09;21.75;;;15.05;;
23716;SDS011;22094;52.130;5.598;2024-01-06T12:37:35;19.52;;;14.77;;
23716;SDS011;22094;52.130;5.598;2024-01-06T12:40:01;21.58;;;14.65;;
23716;SDS011;22094;52.130;5.598;2024-01-06T12:42:27;19.80;;;14.68;;
23716;SDS011;22094;52.130;5.598;2024-01-06T12:44:52;20.58;;;14.93;;
23716;SDS011;22094;52.130;5.598;2024-01-06T12:47:18;21.85;;;14.90;;
23716;SDS011;22094;52.130;5.598;2024-01-06T12:49:44;21.60;;;15.00;;
23716;SDS011;22094;52.130;5.598;2024-01-06T12:52:10;22.00;;;14.45;;
23716;SDS011;22094;52.130;5.598;2024-01-06T12:54:36;23.30;;;15.77;;
23716;SDS011;22094;52.130;5.598;2024-01-06T12:57:02;20.58;;;15.02;;
23716;SDS011;22094;52.130;5.598;2024-01-06T12:59:28;21.55;;;15.25;;
23716;SDS011;22094;52.130;5.598;2024-01-06T13:01:55;22.23;;;15.90;;
23716;SDS011;22094;52.130;5.598;2024-01-06T13:04:21;22.17;;;15.38;;
23716;SDS011;22094;52.130;5.598;2024-01-06T13:06:46;21.25;;;15.45;;
23716;SDS011;22094;52.130;5.598;2024-01-06T13:09:13;24.58;;;16.63;;
23716;SDS011;22094;52.130;5.598;2024-01-06T13:11:41;22.52;;;16.08;;
23716;SDS011;22094;52.130;5.598;2024-01-06T13:14:07;21.35;;;15.48;;
23716;SDS011;22094;52.130;5.598;2024-01-06T13:16:33;23.67;;;15.35;;
23716;SDS011;22094;52.130;5.598;2024-01-06T13:18:59;21.42;;;15.10;;
23716;SDS011;22094;52.130;5.598;2024-01-06T13:21:25;20.65;;;15.68;;
23716;SDS011;22094;52.130;5.598;2024-01-06T13:23:53;19.83;;;14.63;;
23716;SDS011;22094;52.130;5.598;2024-01-06T13:26:24;23.58;;;15.48;;
23716;SDS011;22094;52.130;5.598;2024-01-06T13:28:50;23.17;;;15.90;;
23716;SDS011;22094;52.130;5.598;2024-01-06T13:31:15;21.77;;;15.00;;
23716;SDS011;22094;52.130;5.598;2024-01-06T13:33:41;20.42;;;14.88;;
23716;SDS011;22094;52.130;5.598;2024-01-06T13:36:06;21.80;;;15.48;;
23716;SDS011;22094;52.130;5.598;2024-01-06T13:38:32;23.30;;;15.20;;
23716;SDS011;22094;52.130;5.598;2024-01-06T13:40:58;21.85;;;14.65;;
23716;SDS011;22094;52.130;5.598;2024-01-06T13:43:23;19.35;;;13.80;;
23716;SDS011;22094;52.130;5.598;2024-01-06T13:45:49;19.17;;;13.98;;
23716;SDS011;22094;52.130;5.598;2024-01-06T13:48:14;19.33;;;13.88;;
23716;SDS011;22094;52.130;5.598;2024-01-06T13:50:40;20.20;;;14.48;;
23716;SDS011;22094;52.130;5.598;2024-01-06T13:53:06;19.92;;;13.75;;
23716;SDS011;22094;52.130;5.598;2024-01-06T13:55:32;22.73;;;14.35;;
23716;SDS011;22094;52.130;5.598;2024-01-06T13:58:01;19.90;;;14.02;;
23716;SDS011;22094;52.130;5.598;2024-01-06T14:00:27;22.25;;;15.15;;
23716;SDS011;22094;52.130;5.598;2024-01-06T14:02:52;22.08;;;14.60;;
23716;SDS011;22094;52.130;5.598;2024-01-06T14:05:19;21.95;;;14.25;;
23716;SDS011;22094;52.130;5.598;2024-01-06T14:07:45;22.20;;;14.35;;
23716;SDS011;22094;52.130;5.598;2024-01-06T14:10:13;21.02;;;14.15;;
23716;SDS011;22094;52.130;5.598;2024-01-06T14:12:39;22.13;;;13.57;;
23716;SDS011;22094;52.130;5.598;2024-01-06T14:15:05;21.88;;;13.18;;
23716;SDS011;22094;52.130;5.598;2024-01-06T14:17:32;20.17;;;13.98;;
23716;SDS011;22094;52.130;5.598;2024-01-06T14:19:57;19.65;;;13.50;;